KFST/FST METAR and TAF weather

Enter ICAO airport designator
Station Type Date Time Source
KFST METAR 2019/11/18 04:53 UTC NOAA

KFST 180453Z AUTO 22010KT 10SM CLR 08/02 A3013 RMK AO2 SLP180 T00830017


Station Type Date Time Source
KFST Decoded METAR 2019/11/18 04:53 UTC NOAA

FORT STOCKTON PECOS CO AIRPORT , TX, United States (KFST) 30-55N 102-55W 918M
Nov 17, 2019 - 11:53 PM EST / 2019.11.18 0453 UTC
Wind: from the SW (220 degrees) at 12 MPH (10 KT):0
Visibility: 10 mile(s):0
Sky conditions: clear
Temperature: 46.9 F (8.3 C)
Dew Point: 35.1 F (1.7 C)
Relative Humidity: 63%
Pressure (altimeter): 30.13 in. Hg (1020 hPa)
ob: KFST 180453Z AUTO 22010KT 10SM CLR 08/02 A3013 RMK AO2 SLP180 T00830017
cycle: 5

Station Type Date Time Source
KFST TAF 2019/11/17 20:21 UTC NOAA

TAF
AMD KFST 172018Z 1720/1818 32010KT P6SM SCT250
FM181500 23006KT P6SM FEW250
FM181700 27005KT P6SM FEW250

Example: see airport list